Time;durP1;ratioP1;P1;durP2;ratioP2;P2;SDS_P1;SDS_P2;PMS_P1;PMS_P2;Temp;Humidity;BMP_temperature;BMP_pressure;BME280_temperature;BME280_humidity;BME280_pressure;Samples;Min_cycle;Max_cycle;Signal;HPM_P1;HPM_P2
2023/01/04 00:00:13;;;;;;;;;;;;;;;28.12;61.52;101147.56;5079158;27;65628;-37
2023/01/04 00:02:44;;;;;;;;;;;;;;;28.14;60.93;101141.97;5079326;27;69825;-37
2023/01/04 00:05:15;;;;;;;;;;;;;;;28.14;61.74;101139.25;5074157;27;66352;-40
2023/01/04 00:07:46;;;;;;;;;;;;;;;28.17;61.67;101147.00;5085901;27;69320;-38
2023/01/04 00:10:18;;;;;;;;;;;;;;;28.20;61.26;101143.91;5074188;27;66536;-37
2023/01/04 00:12:48;;;;;;;;;;;;;;;28.21;61.59;101156.34;5090473;27;69738;-39
2023/01/04 00:15:20;;;;;;;;;;;;;;;28.22;61.46;101148.06;5081170;27;66595;-38
2023/01/04 00:17:50;;;;;;;;;;;;;;;28.18;62.03;101157.56;5085710;27;70256;-38
2023/01/04 00:20:21;;;;;;;;;;;;;;;28.23;61.48;101159.69;5080846;27;67211;-38
2023/01/04 00:22:52;;;;;;;;;;;;;;;28.26;61.12;101160.13;5081755;27;70320;-36
2023/01/04 00:25:22;;;;;;;;;;;;;;;28.30;61.39;101176.75;5079826;27;66457;-37
2023/01/04 00:27:53;;;;;;;;;;;;;;;28.32;61.14;101163.06;5080252;27;69829;-37
2023/01/04 00:30:24;;;;;;;;;;;;;;;28.31;61.90;101169.50;5083896;27;66272;-38
2023/01/04 00:32:56;;;;;;;;;;;;;;;28.31;61.70;101173.03;5073944;27;69741;-37
2023/01/04 00:35:27;;;;;;;;;;;;;;;28.35;61.63;101171.59;5087475;27;66674;-38
2023/01/04 00:38:14;;;;;;;;;;;;;;;28.38;61.88;101179.28;5078557;27;69966;-37
2023/01/04 00:40:44;;;;;;;;;;;;;;;28.40;61.61;101181.81;5081110;27;66005;-38
2023/01/04 00:43:15;;;;;;;;;;;;;;;28.23;62.25;101187.50;5079417;27;69319;-36
2023/01/04 00:45:46;;;;;;;;;;;;;;;28.18;62.18;101186.41;5080961;27;65520;-38
2023/01/04 00:48:20;;;;;;;;;;;;;;;28.16;61.96;101189.28;5081018;27;62265;-38
2023/01/04 00:50:51;;;;;;;;;;;;;;;28.19;61.56;101190.75;5083388;27;68005;-37
2023/01/04 00:53:22;;;;;;;;;;;;;;;28.17;61.66;101190.97;5078200;27;70703;-36
2023/01/04 00:55:58;;;;;;;;;;;;;;;28.24;61.29;101199.09;5076437;27;66279;-42
2023/01/04 00:58:29;;;;;;;;;;;;;;;28.26;60.84;101202.44;5078754;27;70366;-37
2023/01/04 01:01:03;;;;;;;;;;;;;;;28.27;60.72;101204.09;5074365;27;66807;-37
2023/01/04 01:03:35;;;;;;;;;;;;;;;28.28;60.80;101201.22;5077851;27;70509;-38
2023/01/04 01:06:07;;;;;;;;;;;;;;;28.29;60.29;101202.06;5075729;27;66406;-38
2023/01/04 01:08:38;;;;;;;;;;;;;;;28.31;60.01;101200.00;5081337;27;70943;-38
2023/01/04 01:11:09;;;;;;;;;;;;;;;28.32;60.29;101198.97;5074067;27;67074;-37
2023/01/04 01:13:40;;;;;;;;;;;;;;;28.33;59.81;101203.31;5077963;27;71318;-37
2023/01/04 01:16:12;;;;;;;;;;;;;;;28.34;60.02;101215.81;5079888;27;66833;-37
2023/01/04 01:18:44;;;;;;;;;;;;;;;28.35;59.88;101212.06;5078226;27;70260;-38
2023/01/04 01:21:17;;;;;;;;;;;;;;;28.35;59.73;101212.06;5081146;27;66168;-37
2023/01/04 01:23:48;;;;;;;;;;;;;;;28.36;59.65;101219.16;5082411;27;70450;-38
2023/01/04 01:26:20;;;;;;;;;;;;;;;28.38;59.45;101225.16;5077384;27;65924;-37
2023/01/04 01:28:52;;;;;;;;;;;;;;;28.38;59.13;101222.47;5077558;27;70763;-39
2023/01/04 01:31:24;;;;;;;;;;;;;;;28.39;59.02;101226.84;5083605;27;66200;-39
2023/01/04 01:33:56;;;;;;;;;;;;;;;28.41;58.86;101227.47;5073643;27;70032;-36
2023/01/04 01:36:27;;;;;;;;;;;;;;;28.39;59.30;101217.91;5080978;27;66741;-37
2023/01/04 01:38:58;;;;;;;;;;;;;;;28.44;58.90;101226.28;5069035;27;71255;-38
2023/01/04 01:41:30;;;;;;;;;;;;;;;28.45;58.70;101227.97;5074944;27;67114;-37
2023/01/04 01:44:01;;;;;;;;;;;;;;;28.46;58.66;101230.44;5080209;27;70389;-37
2023/01/04 01:46:32;;;;;;;;;;;;;;;28.46;59.01;101230.44;5086502;27;66645;-38
2023/01/04 01:49:06;;;;;;;;;;;;;;;28.47;58.58;101228.59;5072517;27;70740;-38
2023/01/04 01:51:38;;;;;;;;;;;;;;;28.47;59.00;101226.75;5075831;27;67014;-38
2023/01/04 01:54:14;;;;;;;;;;;;;;;28.48;58.88;101228.41;5080712;27;69788;-38
2023/01/04 01:56:46;;;;;;;;;;;;;;;28.49;58.76;101230.06;5058603;28;66061;-38
2023/01/04 01:59:17;;;;;;;;;;;;;;;28.50;58.33;101226.34;5076320;27;70370;-37
2023/01/04 02:01:49;;;;;;;;;;;;;;;28.53;58.72;101235.91;5079405;27;66560;-37
2023/01/04 02:08:05;;;;;;;;;;;;;;;28.58;58.42;101232.63;5085501;27;66167;-38
2023/01/04 02:10:36;;;;;;;;;;;;;;;28.59;58.05;101228.91;5082338;27;71278;-38
2023/01/04 02:13:14;;;;;;;;;;;;;;;28.61;58.06;101226.81;5076220;27;66829;-37
2023/01/04 02:15:50;;;;;;;;;;;;;;;28.63;57.91;101230.16;5073076;27;69061;-38
2023/01/04 02:18:26;;;;;;;;;;;;;;;28.61;58.17;101224.97;5082248;27;66834;-39
2023/01/04 02:21:04;;;;;;;;;;;;;;;28.66;58.31;101232.47;5079748;27;70194;-37
2023/01/04 02:23:44;;;;;;;;;;;;;;;28.65;58.32;101233.50;5077862;27;67087;-37
2023/01/04 02:26:21;;;;;;;;;;;;;;;28.70;57.78;101239.16;5073503;27;70395;-37
2023/01/04 02:29:10;;;;;;;;;;;;;;;28.71;57.73;101238.13;5079489;27;67815;-37
2023/01/04 02:31:47;;;;;;;;;;;;;;;28.74;57.97;101237.72;5083004;27;69936;-36
2023/01/04 02:34:30;;;;;;;;;;;;;;;28.76;57.66;101243.75;5078139;27;66688;-37
2023/01/04 02:37:19;;;;;;;;;;;;;;;28.78;57.56;101243.53;5091885;27;69719;-38
2023/01/04 02:39:53;;;;;;;;;;;;;;;28.80;57.59;101242.31;5081882;27;66085;-38
2023/01/04 02:42:24;;;;;;;;;;;;;;;28.81;57.69;101235.91;5083116;27;70225;-37
2023/01/04 02:44:58;;;;;;;;;;;;;;;28.84;57.34;101238.22;5083916;27;66736;-37
2023/01/04 02:50:39;;;;;;;;;;;;;;;28.87;57.28;101237.81;5081036;27;64972;-37
2023/01/04 02:53:10;;;;;;;;;;;;;;;28.90;57.23;101236.56;5074751;27;70176;-38
2023/01/04 02:55:41;;;;;;;;;;;;;;;28.92;57.66;101240.75;5091628;27;66799;-39
2023/01/04 02:58:17;;;;;;;;;;;;;;;28.93;57.14;101237.00;5084672;27;69653;-38
2023/01/04 03:06:49;;;;;;;;;;;;;;;29.02;57.45;101231.44;5075287;27;66011;-38
2023/01/04 03:09:23;;;;;;;;;;;;;;;29.05;56.84;101233.78;5075765;27;70030;-37
2023/01/04 03:14:54;;;;;;;;;;;;;;;29.11;57.29;101227.56;5082727;27;70854;-38
2023/01/04 03:17:25;;;;;;;;;;;;;;;29.14;57.03;101221.75;5078778;27;66563;-38
2023/01/04 03:19:57;;;;;;;;;;;;;;;29.16;56.71;101225.94;5074284;27;69230;-39
2023/01/04 03:37:31;;;;;;;;;;;;;;;29.33;56.16;101204.81;5078262;27;70231;-38
2023/01/04 03:49:16;;;;;;;;;;;;;;;29.47;56.51;101191.34;5093773;27;70284;-38
2023/01/04 03:51:48;;;;;;;;;;;;;;;29.48;56.13;101185.75;5080260;27;65488;-41
2023/01/04 03:54:22;;;;;;;;;;;;;;;29.51;56.22;101179.09;5080373;27;69909;-41
2023/01/04 03:56:53;;;;;;;;;;;;;;;29.54;56.29;101179.53;5063093;27;66899;-39
2023/01/04 03:59:24;;;;;;;;;;;;;;;29.56;56.21;101176.59;5077395;27;70329;-42
2023/01/04 04:01:55;;;;;;;;;;;;;;;29.59;56.24;101177.03;5080875;27;66849;-38
2023/01/04 04:10:04;;;;;;;;;;;;;;;29.67;56.02;101157.13;5076521;27;69692;-37
2023/01/04 04:12:34;;;;;;;;;;;;;;;29.69;55.56;101152.34;5058486;27;67585;-38
2023/01/04 04:15:05;;;;;;;;;;;;;;;29.72;55.84;101149.22;5078716;27;69439;-38
2023/01/04 04:17:36;;;;;;;;;;;;;;;29.74;55.95;101149.84;5078219;27;67601;-38
2023/01/04 04:20:07;;;;;;;;;;;;;;;29.76;55.81;101145.06;5080994;27;69506;-38
2023/01/04 04:22:38;;;;;;;;;;;;;;;29.79;55.67;101141.13;5076137;27;64757;-38
2023/01/04 04:25:08;;;;;;;;;;;;;;;29.81;55.79;101139.88;5078272;27;70755;-38
2023/01/04 04:27:39;;;;;;;;;;;;;;;29.83;55.30;101145.06;5076426;27;66088;-38
2023/01/04 04:30:10;;;;;;;;;;;;;;;29.85;55.83;101129.47;5080936;27;70671;-38
2023/01/04 04:32:41;;;;;;;;;;;;;;;29.86;55.59;101122.19;5053475;27;66792;-38
2023/01/04 04:35:11;;;;;;;;;;;;;;;29.89;55.85;101114.47;5081803;27;69658;-38
2023/01/04 04:37:43;;;;;;;;;;;;;;;29.92;55.64;101121.34;5066841;27;65596;-39
2023/01/04 04:43:02;;;;;;;;;;;;;;;29.95;55.62;101108.28;5081462;27;66509;-39
2023/01/04 04:45:33;;;;;;;;;;;;;;;29.98;55.46;101104.31;5078702;27;69738;-38
2023/01/04 04:48:06;;;;;;;;;;;;;;;29.99;54.96;101089.75;5065709;27;66062;-37
2023/01/04 04:50:37;;;;;;;;;;;;;;;30.00;55.40;101092.22;5072817;27;69032;-42
2023/01/04 04:53:08;;;;;;;;;;;;;;;30.03;55.40;101088.25;5063606;27;66191;-40
2023/01/04 04:55:39;;;;;;;;;;;;;;;30.04;55.02;101087.25;5067033;28;69478;-38
2023/01/04 04:58:10;;;;;;;;;;;;;;;30.05;55.09;101088.91;5064407;27;66358;-41
2023/01/04 05:00:40;;;;;;;;;;;;;;;30.06;55.17;101090.53;5084699;27;69896;-40
2023/01/04 05:03:11;;;;;;;;;;;;;;;30.08;54.72;101077.66;5085591;27;65669;-39
2023/01/04 05:05:42;;;;;;;;;;;;;;;30.08;55.30;101066.84;5079957;27;70615;-39
2023/01/04 05:08:13;;;;;;;;;;;;;;;30.10;55.00;101062.06;5061985;28;66885;-42
2023/01/04 05:10:44;;;;;;;;;;;;;;;30.11;54.80;101052.88;5076363;27;70205;-38
2023/01/04 05:13:14;;;;;;;;;;;;;;;30.12;54.93;101057.28;5076173;27;67000;-39
2023/01/04 05:15:46;;;;;;;;;;;;;;;30.14;55.16;101055.16;5075940;27;69733;-38
2023/01/04 05:18:19;;;;;;;;;;;;;;;30.14;55.11;101049.75;5055663;28;65784;-38
2023/01/04 05:20:50;;;;;;;;;;;;;;;30.13;54.86;101041.88;5084710;27;70659;-37
2023/01/04 05:23:21;;;;;;;;;;;;;;;30.19;54.74;101041.84;5095971;27;66203;-42
2023/01/04 05:25:53;;;;;;;;;;;;;;;30.20;55.30;101034.53;5085628;27;69476;-40
2023/01/04 05:28:24;;;;;;;;;;;;;;;30.22;54.90;101027.91;5082844;27;65174;-38
2023/01/04 05:30:56;;;;;;;;;;;;;;;30.24;54.85;101027.72;5082412;27;70005;-37
2023/01/04 05:33:27;;;;;;;;;;;;;;;30.24;55.03;101017.72;5080241;27;65575;-41
2023/01/04 05:35:59;;;;;;;;;;;;;;;30.27;54.72;101006.47;5053806;28;70659;-38
2023/01/04 05:38:30;;;;;;;;;;;;;;;30.28;55.13;101008.13;5082531;27;65116;-40
2023/01/04 05:41:01;;;;;;;;;;;;;;;30.31;54.61;101001.44;5081252;27;69833;-38
2023/01/04 05:43:31;;;;;;;;;;;;;;;30.32;55.06;100996.88;5079865;27;66238;-43
2023/01/04 05:46:02;;;;;;;;;;;;;;;30.35;55.27;100996.47;5080612;27;69925;-40
2023/01/04 05:48:33;;;;;;;;;;;;;;;30.38;54.53;100998.72;5062090;28;65479;-38
2023/01/04 05:51:04;;;;;;;;;;;;;;;30.39;55.17;100990.38;5080654;27;69883;-38
2023/01/04 05:53:34;;;;;;;;;;;;;;;30.42;54.98;100987.28;5062911;27;67013;-40
2023/01/04 05:56:05;;;;;;;;;;;;;;;30.43;54.88;100979.97;5080069;27;70188;-40
2023/01/04 05:58:36;;;;;;;;;;;;;;;30.45;55.00;100976.00;5080406;27;66071;-40
2023/01/04 06:01:07;;;;;;;;;;;;;;;30.48;54.46;100969.34;5062868;27;70275;-42
2023/01/04 06:03:37;;;;;;;;;;;;;;;30.50;54.72;100969.94;5078446;27;66978;-41
2023/01/04 06:06:08;;;;;;;;;;;;;;;30.53;54.78;100971.38;5081452;27;70514;-42
2023/01/04 06:08:39;;;;;;;;;;;;;;;30.56;54.40;100963.66;5083299;27;66181;-40
2023/01/04 06:11:10;;;;;;;;;;;;;;;30.59;55.07;100954.28;5081630;27;70721;-38
2023/01/04 06:13:41;;;;;;;;;;;;;;;30.60;54.51;100943.22;5079766;27;65970;-39
2023/01/04 06:16:12;;;;;;;;;;;;;;;30.61;54.50;100942.19;5079761;27;70357;-40
2023/01/04 06:18:42;;;;;;;;;;;;;;;30.64;54.78;100936.31;5082540;27;66037;-40
2023/01/04 06:21:13;;;;;;;;;;;;;;;30.66;54.52;100928.81;5068087;27;69684;-40
2023/01/04 06:23:44;;;;;;;;;;;;;;;30.68;54.47;100921.31;5085101;27;67190;-39
2023/01/04 06:26:15;;;;;;;;;;;;;;;30.70;54.25;100916.53;5082147;27;70047;-41
2023/01/04 06:28:46;;;;;;;;;;;;;;;30.72;54.56;100917.13;5066677;27;66432;-38
2023/01/04 06:31:18;;;;;;;;;;;;;;;30.74;54.35;100914.19;5089149;27;70708;-39
2023/01/04 06:33:50;;;;;;;;;;;;;;;30.76;53.98;100913.97;5084354;27;66735;-38
2023/01/04 06:36:21;;;;;;;;;;;;;;;30.78;54.51;100909.16;5086441;27;70336;-38
2023/01/04 06:38:52;;;;;;;;;;;;;;;30.79;53.99;100902.72;5078591;27;66781;-37
2023/01/04 06:41:30;;;;;;;;;;;;;;;30.81;54.34;100897.94;5059635;27;69448;-38
2023/01/04 06:44:01;;;;;;;;;;;;;;;30.84;54.36;100892.06;5079737;27;66117;-39
2023/01/04 06:46:32;;;;;;;;;;;;;;;30.86;54.43;100898.91;5062643;27;69295;-38
2023/01/04 06:49:03;;;;;;;;;;;;;;;30.88;53.87;100898.72;5068399;28;66090;-39
2023/01/04 06:51:34;;;;;;;;;;;;;;;30.88;53.73;100888.72;5087666;27;70257;-38
2023/01/04 06:54:04;;;;;;;;;;;;;;;30.91;54.30;100893.69;5087143;27;66232;-38
2023/01/04 06:56:35;;;;;;;;;;;;;;;30.94;53.53;100887.00;5081331;27;69062;-38
2023/01/04 06:59:08;;;;;;;;;;;;;;;30.96;53.81;100884.09;5077604;27;66932;-37
2023/01/04 07:01:39;;;;;;;;;;;;;;;30.98;53.75;100885.53;5075189;27;70356;-38
2023/01/04 07:04:09;;;;;;;;;;;;;;;30.97;53.80;100889.25;5088202;27;66050;-38
2023/01/04 07:06:40;;;;;;;;;;;;;;;31.00;53.95;100875.28;5083131;27;71036;-38
2023/01/04 07:09:11;;;;;;;;;;;;;;;31.01;53.75;100866.13;5090427;27;66926;-38
2023/01/04 07:11:41;;;;;;;;;;;;;;;31.02;53.92;100862.34;5078325;27;70286;-40
2023/01/04 07:14:13;;;;;;;;;;;;;;;31.05;53.16;100864.59;5077821;27;65642;-41
2023/01/04 07:16:44;;;;;;;;;;;;;;;31.06;53.27;100852.72;5056804;27;69647;-41
2023/01/04 07:19:17;;;;;;;;;;;;;;;31.07;53.11;100851.69;5084141;27;66456;-39
2023/01/04 07:21:48;;;;;;;;;;;;;;;31.09;53.38;100852.28;5080130;27;69847;-36
2023/01/04 07:24:19;;;;;;;;;;;;;;;31.11;53.14;100855.59;5060012;27;66951;-38
2023/01/04 07:27:01;;;;;;;;;;;;;;;31.12;53.14;100846.41;5080747;27;68591;-37
2023/01/04 07:29:32;;;;;;;;;;;;;;;31.14;53.13;100838.06;5079366;27;66696;-37
2023/01/04 07:32:03;;;;;;;;;;;;;;;31.15;53.24;100851.38;5084403;27;70243;-37
2023/01/04 07:34:43;;;;;;;;;;;;;;;31.15;53.11;100835.13;5079780;27;67224;-37
2023/01/04 07:37:14;;;;;;;;;;;;;;;31.17;53.33;100843.88;5063935;27;70579;-37
2023/01/04 07:39:47;;;;;;;;;;;;;;;31.19;52.88;100829.25;5082268;27;66352;-37
2023/01/04 07:42:19;;;;;;;;;;;;;;;31.20;52.70;100841.75;5067177;28;69166;-37
2023/01/04 07:44:50;;;;;;;;;;;;;;;31.20;52.65;100830.91;5081860;27;67106;-37
2023/01/04 07:47:21;;;;;;;;;;;;;;;31.21;52.78;100829.88;5078648;27;70603;-39
2023/01/04 07:49:52;;;;;;;;;;;;;;;31.22;52.96;100834.22;5088673;27;66136;-38
2023/01/04 07:52:22;;;;;;;;;;;;;;;31.23;52.92;100830.47;5087722;27;69750;-38
2023/01/04 07:54:53;;;;;;;;;;;;;;;31.24;52.52;100834.84;5082924;27;66669;-38
2023/01/04 07:57:24;;;;;;;;;;;;;;;31.25;52.29;100844.63;5087497;27;70143;-38
2023/01/04 07:59:54;;;;;;;;;;;;;;;31.26;52.28;100830.00;5051283;27;65337;-38
2023/01/04 08:02:25;;;;;;;;;;;;;;;31.27;52.53;100831.69;5068004;27;69805;-37
2023/01/04 08:04:56;;;;;;;;;;;;;;;31.28;52.38;100836.03;5091348;27;66233;-38
2023/01/04 08:07:27;;;;;;;;;;;;;;;31.29;52.38;100837.72;5092698;27;69385;-37
2023/01/04 08:09:58;;;;;;;;;;;;;;;31.29;52.22;100827.69;5081381;27;66591;-37
2023/01/04 08:12:28;;;;;;;;;;;;;;;31.30;52.53;100840.19;5082347;27;70599;-38
2023/01/04 08:15:02;;;;;;;;;;;;;;;31.30;52.25;100823.09;5083726;27;65838;-38
2023/01/04 08:17:33;;;;;;;;;;;;;;;31.30;52.25;100826.63;5073275;27;71188;-40
2023/01/04 08:20:04;;;;;;;;;;;;;;;31.31;52.41;100832.88;5086661;27;67153;-38
2023/01/04 08:22:35;;;;;;;;;;;;;;;31.31;52.45;100816.63;5058109;27;69122;-37
2023/01/04 08:25:06;;;;;;;;;;;;;;;31.32;52.18;100821.00;5080605;27;66450;-37
2023/01/04 08:27:36;;;;;;;;;;;;;;;31.29;52.36;100818.75;5084702;27;69801;-38
2023/01/04 08:30:07;;;;;;;;;;;;;;;31.09;52.37;100779.13;5084988;27;66670;-37
2023/01/04 08:32:39;;;;;;;;;;;;;;;31.33;52.58;100814.53;5079410;27;69860;-37
2023/01/04 08:35:11;;;;;;;;;;;;;;;31.34;52.30;100827.00;5081820;27;66852;-38
2023/01/04 08:37:41;;;;;;;;;;;;;;;31.33;52.52;100817.22;5079969;27;69060;-37
2023/01/04 08:40:12;;;;;;;;;;;;;;;31.32;52.08;100818.28;5082673;27;66096;-38
2023/01/04 08:42:42;;;;;;;;;;;;;;;31.33;52.49;100820.75;5083759;27;70667;-37
2023/01/04 08:45:14;;;;;;;;;;;;;;;31.34;52.28;100816.16;5079532;27;66653;-37
2023/01/04 08:47:45;;;;;;;;;;;;;;;31.34;52.03;100821.59;5076879;27;70055;-38
2023/01/04 08:50:19;;;;;;;;;;;;;;;31.34;51.95;100818.88;5080258;27;66149;-39
2023/01/04 08:52:49;;;;;;;;;;;;;;;31.35;51.89;100823.25;5083806;27;70231;-38
2023/01/04 08:55:21;;;;;;;;;;;;;;;31.35;52.17;100825.97;5079790;27;66711;-38
2023/01/04 08:57:51;;;;;;;;;;;;;;;31.36;51.88;100817.63;5084225;27;70649;-38
2023/01/04 09:00:23;;;;;;;;;;;;;;;31.36;52.12;100819.53;5087401;27;66211;-38
2023/01/04 09:02:54;;;;;;;;;;;;;;;31.35;52.32;100817.84;5081094;27;71228;-38
2023/01/04 09:05:25;;;;;;;;;;;;;;;31.33;51.97;100825.34;5065904;27;66997;-41
2023/01/04 09:07:58;;;;;;;;;;;;;;;31.35;51.65;100820.56;5083612;27;69050;-38
2023/01/04 09:10:29;;;;;;;;;;;;;;;31.34;52.02;100827.84;5074188;27;67082;-38
2023/01/04 09:13:01;;;;;;;;;;;;;;;31.34;51.64;100827.00;5086617;27;70611;-38
2023/01/04 09:15:33;;;;;;;;;;;;;;;31.31;51.83;100827.47;5082962;27;66855;-38
2023/01/04 09:18:04;;;;;;;;;;;;;;;31.35;52.04;100839.53;5085721;27;70247;-38
2023/01/04 09:20:55;;;;;;;;;;;;;;;31.31;51.79;100835.59;5088903;27;66838;-37
2023/01/04 09:23:27;;;;;;;;;;;;;;;31.30;51.65;100832.06;5093781;27;70517;-38
2023/01/04 09:25:58;;;;;;;;;;;;;;;31.33;51.68;100841.63;5083595;27;66145;-41
2023/01/04 09:28:37;;;;;;;;;;;;;;;31.32;51.97;100843.50;5074688;27;68228;-39
2023/01/04 09:31:12;;;;;;;;;;;;;;;31.28;51.64;100833.34;5085223;27;66334;-41
2023/01/04 09:33:44;;;;;;;;;;;;;;;31.31;51.95;100847.25;5060846;27;69726;-38
2023/01/04 09:36:35;;;;;;;;;;;;;;;31.30;52.33;100847.50;5090386;27;65935;-38
2023/01/04 09:39:07;;;;;;;;;;;;;;;31.29;52.17;100856.69;5075157;27;69408;-42
2023/01/04 09:41:56;;;;;;;;;;;;;;;31.29;51.94;100856.69;5083402;27;66283;-38
2023/01/04 09:44:45;;;;;;;;;;;;;;;31.28;51.69;100860.44;5090194;27;70520;-38
2023/01/04 09:47:45;;;;;;;;;;;;;;;31.28;52.04;100863.16;5081004;27;66014;-40
2023/01/04 09:50:41;;;;;;;;;;;;;;;31.25;52.12;100866.31;5081185;27;70692;-38
2023/01/04 09:53:12;;;;;;;;;;;;;;;31.27;52.37;100872.34;5078902;27;66885;-39
2023/01/04 09:55:46;;;;;;;;;;;;;;;31.26;52.31;100873.38;5069133;27;69385;-37
2023/01/04 09:58:33;;;;;;;;;;;;;;;31.26;52.16;100873.38;5082056;27;66715;-37
2023/01/04 10:01:10;;;;;;;;;;;;;;;31.23;51.99;100876.53;5080777;27;68859;-41
2023/01/04 10:03:53;;;;;;;;;;;;;;;31.23;52.16;100884.66;5097128;27;65912;-38
2023/01/04 10:06:25;;;;;;;;;;;;;;;31.24;51.86;100883.63;5081406;27;69867;-38
2023/01/04 10:08:58;;;;;;;;;;;;;;;31.22;52.20;100889.25;5082060;27;66467;-38
2023/01/04 10:11:31;;;;;;;;;;;;;;;31.22;52.69;100888.44;5086807;27;70047;-38
2023/01/04 10:14:14;;;;;;;;;;;;;;;31.20;52.05;100885.09;5065394;27;66273;-40
2023/01/04 10:16:59;;;;;;;;;;;;;;;31.21;52.23;100898.44;5066751;27;68896;-39
2023/01/04 10:19:53;;;;;;;;;;;;;;;31.16;52.49;100901.81;5080978;27;66313;-39
2023/01/04 10:22:56;;;;;;;;;;;;;;;31.16;52.73;100903.69;5077224;27;70422;-39
2023/01/04 10:25:38;;;;;;;;;;;;;;;31.23;52.58;100917.19;5080053;27;67029;-38
2023/01/04 10:28:21;;;;;;;;;;;;;;;31.19;53.18;100915.97;5074949;27;70082;-41
2023/01/04 10:31:18;;;;;;;;;;;;;;;31.09;54.12;100921.88;5049214;27;64240;-38
2023/01/04 10:34:29;;;;;;;;;;;;;;;31.03;54.54;100922.75;5086260;27;69879;-42
2023/01/04 10:37:17;;;;;;;;;;;;;;;30.95;54.23;100926.56;5084863;27;66382;-40
2023/01/04 10:39:53;;;;;;;;;;;;;;;30.95;54.95;100931.97;5081202;27;70739;-39
2023/01/04 10:42:34;;;;;;;;;;;;;;;30.93;54.92;100942.22;5085589;27;66614;-39
2023/01/04 10:45:17;;;;;;;;;;;;;;;30.88;55.67;100942.06;5077633;27;70559;-38
2023/01/04 10:48:01;;;;;;;;;;;;;;;30.88;56.00;100942.88;5089863;27;65346;-38
2023/01/04 10:50:55;;;;;;;;;;;;;;;30.87;56.06;100945.78;5079698;27;68928;-39
2023/01/04 10:53:45;;;;;;;;;;;;;;;30.77;57.45;100945.44;5079133;27;66480;-39
2023/01/04 10:56:45;;;;;;;;;;;;;;;30.81;56.52;100952.91;5083000;27;70019;-38
2023/01/04 10:59:21;;;;;;;;;;;;;;;30.86;56.61;100950.38;5064112;27;66200;-40
2023/01/04 11:02:11;;;;;;;;;;;;;;;30.91;56.44;100963.28;5041632;27;69998;-41
2023/01/04 11:04:47;;;;;;;;;;;;;;;31.07;56.29;100957.34;5042857;27;66477;-41
2023/01/04 11:07:47;;;;;;;;;;;;;;;31.05;56.94;100959.44;5080085;27;70506;-42
2023/01/04 11:10:23;;;;;;;;;;;;;;;30.96;57.76;100966.16;5066065;27;66670;-39
2023/01/04 11:12:54;;;;;;;;;;;;;;;30.92;58.47;100954.94;5059817;27;69733;-42
2023/01/04 11:15:25;;;;;;;;;;;;;;;30.90;58.12;100967.06;5084107;27;66301;-41
2023/01/04 11:17:58;;;;;;;;;;;;;;;30.84;58.62;100962.47;5075507;27;71612;-41
2023/01/04 11:20:30;;;;;;;;;;;;;;;30.82;58.14;100970.03;5080315;27;66219;-39
2023/01/04 11:23:24;;;;;;;;;;;;;;;30.78;58.57;100976.88;5057573;27;69259;-43
2023/01/04 11:25:56;;;;;;;;;;;;;;;30.75;58.53;100974.59;5064296;27;66181;-41
2023/01/04 11:28:27;;;;;;;;;;;;;;;30.69;58.69;100992.53;5082249;27;69711;-42
2023/01/04 11:31:08;;;;;;;;;;;;;;;30.70;58.82;100986.06;5076141;27;65451;-42
2023/01/04 11:33:57;;;;;;;;;;;;;;;30.68;58.73;100997.13;5078410;27;70271;-38
2023/01/04 11:36:30;;;;;;;;;;;;;;;30.66;58.36;100998.41;5078936;27;66403;-39
2023/01/04 11:39:02;;;;;;;;;;;;;;;30.65;58.85;101000.28;5064947;27;70028;-41
2023/01/04 11:41:34;;;;;;;;;;;;;;;30.65;58.08;100997.56;5080576;27;65795;-39
2023/01/04 11:44:07;;;;;;;;;;;;;;;30.40;58.49;100964.19;5078867;27;70548;-40
2023/01/04 11:46:38;;;;;;;;;;;;;;;30.62;59.12;101008.84;5072348;27;65260;-40
2023/01/04 11:49:19;;;;;;;;;;;;;;;30.60;59.29;101004.69;5051805;27;69833;-43
2023/01/04 11:51:50;;;;;;;;;;;;;;;30.60;59.33;101008.22;5077434;27;66863;-41
2023/01/04 11:54:22;;;;;;;;;;;;;;;30.60;59.73;101015.50;5078992;27;69777;-42
2023/01/04 11:57:02;;;;;;;;;;;;;;;30.63;59.83;101010.47;5077644;27;65858;-42
2023/01/04 11:59:40;;;;;;;;;;;;;;;30.56;59.21;101004.25;5080772;27;70652;-40
2023/01/04 12:02:24;;;;;;;;;;;;;;;30.55;60.12;101018.84;5062190;28;66377;-42
2023/01/04 12:05:19;;;;;;;;;;;;;;;30.57;60.21;101027.59;5078942;27;68317;-42
2023/01/04 12:07:58;;;;;;;;;;;;;;;30.58;59.56;101023.00;5084177;27;67306;-42
2023/01/04 12:10:29;;;;;;;;;;;;;;;30.55;60.26;101031.56;5064487;27;70872;-42
2023/01/04 12:13:01;;;;;;;;;;;;;;;30.55;60.45;101024.25;5079463;27;65338;-40
2023/01/04 12:15:43;;;;;;;;;;;;;;;30.53;60.67;101026.34;5068984;27;69840;-39
2023/01/04 12:18:25;;;;;;;;;;;;;;;30.55;60.77;101029.69;5082987;27;65665;-42
2023/01/04 12:20:57;;;;;;;;;;;;;;;30.55;60.80;101029.69;5044670;27;69829;-42
2023/01/04 12:23:28;;;;;;;;;;;;;;;30.57;60.39;101035.72;5046310;27;65582;-43
2023/01/04 12:25:59;;;;;;;;;;;;;;;30.58;60.78;101044.66;5078786;27;71659;-41
2023/01/04 12:28:32;;;;;;;;;;;;;;;30.57;60.44;101043.00;5065823;27;65677;-41
2023/01/04 12:31:18;;;;;;;;;;;;;;;30.60;61.07;101051.53;5054790;27;70720;-42
2023/01/04 12:33:56;;;;;;;;;;;;;;;30.61;61.34;101058.59;5078088;27;65698;-42
2023/01/04 12:36:54;;;;;;;;;;;;;;;30.59;60.61;101058.00;5036884;27;70266;-41
2023/01/04 12:39:44;;;;;;;;;;;;;;;30.61;60.54;101060.47;5023393;27;66446;-42
2023/01/04 12:42:17;;;;;;;;;;;;;;;30.62;60.90;101062.13;5049921;27;69470;-43
2023/01/04 12:44:50;;;;;;;;;;;;;;;30.63;61.26;101071.94;5064568;27;65386;-40
2023/01/04 12:50:28;;;;;;;;;;;;;;;30.61;61.61;101077.53;5074601;27;65925;-41
2023/01/04 12:53:00;;;;;;;;;;;;;;;30.60;60.86;101075.06;5084968;27;69255;-37
2023/01/04 12:55:53;;;;;;;;;;;;;;;30.62;61.67;101078.38;5078856;27;66682;-39
2023/01/04 12:58:26;;;;;;;;;;;;;;;30.63;61.85;101086.28;5090708;27;70332;-38
2023/01/04 13:01:25;;;;;;;;;;;;;;;30.59;61.60;101095.91;5068751;27;66798;-41
2023/01/04 13:03:58;;;;;;;;;;;;;;;30.62;62.22;101100.03;5060583;27;69835;-38
2023/01/04 13:06:41;;;;;;;;;;;;;;;30.63;61.86;101099.00;5085132;27;67765;-36
2023/01/04 13:09:18;;;;;;;;;;;;;;;30.61;62.21;101110.03;5083639;27;70304;-39
2023/01/04 13:11:59;;;;;;;;;;;;;;;30.57;61.98;101097.97;5060818;27;66111;-39
2023/01/04 13:14:37;;;;;;;;;;;;;;;30.55;62.05;101102.78;5078985;27;70550;-39
2023/01/04 13:17:25;;;;;;;;;;;;;;;30.54;62.15;101103.81;5086903;27;67067;-40
2023/01/04 13:19:56;;;;;;;;;;;;;;;30.59;62.49;101108.59;5085212;27;70171;-38
2023/01/04 13:22:29;;;;;;;;;;;;;;;30.59;62.20;101117.56;5083943;27;67055;-40
2023/01/04 13:25:03;;;;;;;;;;;;;;;30.56;62.03;101117.13;5071336;27;69958;-37
2023/01/04 13:27:34;;;;;;;;;;;;;;;30.49;62.04;101123.41;5070836;27;66242;-40
2023/01/04 13:30:05;;;;;;;;;;;;;;;30.38;59.52;101128.66;5085343;27;69894;-37
2023/01/04 13:32:37;;;;;;;;;;;;;;;30.20;57.18;101127.41;5087181;27;65239;-38
2023/01/04 13:35:28;;;;;;;;;;;;;;;30.06;56.00;101140.09;5077334;27;70718;-38
2023/01/04 13:38:00;;;;;;;;;;;;;;;29.94;55.09;101140.91;5080288;27;66542;-41
2023/01/04 13:40:36;;;;;;;;;;;;;;;29.83;54.51;101137.78;5060522;27;70028;-40
2023/01/04 13:43:32;;;;;;;;;;;;;;;29.72;53.67;101140.28;5081786;27;65987;-41
2023/01/04 13:46:03;;;;;;;;;;;;;;;29.57;52.65;101137.75;5085267;27;69380;-39
2023/01/04 13:48:36;;;;;;;;;;;;;;;29.46;51.56;101141.03;5084374;27;67351;-40
2023/01/04 13:51:13;;;;;;;;;;;;;;;29.38;50.80;101156.41;5083564;27;69804;-41
2023/01/04 13:53:52;;;;;;;;;;;;;;;29.31;50.35;101157.41;5087014;27;65955;-41
2023/01/04 13:56:24;;;;;;;;;;;;;;;29.25;49.56;101159.06;5084612;27;69140;-41
2023/01/04 13:58:55;;;;;;;;;;;;;;;29.17;49.33;101156.56;5065505;27;66020;-40
2023/01/04 14:01:28;;;;;;;;;;;;;;;29.05;48.66;101163.56;5084366;27;69918;-40
2023/01/04 14:04:07;;;;;;;;;;;;;;;28.99;48.02;101161.63;5084931;27;66533;-40